sensor_id;sensor_type;location;lat;lon;timestamp;P1;durP1;ratioP1;P2;durP2;ratioP2
12892;SDS011;6514;48.606;9.222;2023-05-10T00:01:34;1.70;;;1.60;;
12892;SDS011;6514;48.606;9.222;2023-05-10T00:04:01;2.13;;;1.77;;
12892;SDS011;6514;48.606;9.222;2023-05-10T00:06:28;3.93;;;2.20;;
12892;SDS011;6514;48.606;9.222;2023-05-10T00:08:56;2.27;;;1.57;;
12892;SDS011;6514;48.606;9.222;2023-05-10T00:11:23;1.80;;;1.70;;
12892;SDS011;6514;48.606;9.222;2023-05-10T00:13:50;5.33;;;1.93;;
12892;SDS011;6514;48.606;9.222;2023-05-10T00:16:17;1.70;;;1.60;;
12892;SDS011;6514;48.606;9.222;2023-05-10T00:18:44;2.50;;;2.20;;
12892;SDS011;6514;48.606;9.222;2023-05-10T00:21:11;2.07;;;1.87;;
12892;SDS011;6514;48.606;9.222;2023-05-10T00:23:37;1.77;;;1.67;;
12892;SDS011;6514;48.606;9.222;2023-05-10T00:26:06;2.83;;;1.50;;
12892;SDS011;6514;48.606;9.222;2023-05-10T00:28:33;3.77;;;1.27;;
12892;SDS011;6514;48.606;9.222;2023-05-10T00:31:00;3.73;;;1.30;;
12892;SDS011;6514;48.606;9.222;2023-05-10T00:33:27;4.10;;;1.20;;
12892;SDS011;6514;48.606;9.222;2023-05-10T00:35:54;2.87;;;0.93;;
12892;SDS011;6514;48.606;9.222;2023-05-10T00:38:21;1.83;;;1.10;;
12892;SDS011;6514;48.606;9.222;2023-05-10T00:40:47;3.13;;;1.13;;
12892;SDS011;6514;48.606;9.222;2023-05-10T00:43:16;2.23;;;1.23;;
12892;SDS011;6514;48.606;9.222;2023-05-10T00:45:43;0.90;;;0.90;;
12892;SDS011;6514;48.606;9.222;2023-05-10T00:48:10;0.80;;;0.80;;
12892;SDS011;6514;48.606;9.222;2023-05-10T00:50:37;0.80;;;0.80;;
12892;SDS011;6514;48.606;9.222;2023-05-10T00:53:05;0.73;;;0.73;;
12892;SDS011;6514;48.606;9.222;2023-05-10T00:55:32;0.73;;;0.73;;
12892;SDS011;6514;48.606;9.222;2023-05-10T00:57:59;0.77;;;0.77;;
12892;SDS011;6514;48.606;9.222;2023-05-10T01:00:27;1.27;;;1.17;;
12892;SDS011;6514;48.606;9.222;2023-05-10T01:02:54;1.80;;;0.87;;
12892;SDS011;6514;48.606;9.222;2023-05-10T01:05:22;0.70;;;0.70;;
12892;SDS011;6514;48.606;9.222;2023-05-10T01:07:49;2.73;;;0.63;;
12892;SDS011;6514;48.606;9.222;2023-05-10T01:10:16;0.80;;;0.77;;
12892;SDS011;6514;48.606;9.222;2023-05-10T01:12:44;1.83;;;1.03;;
12892;SDS011;6514;48.606;9.222;2023-05-10T01:15:12;1.60;;;0.90;;
12892;SDS011;6514;48.606;9.222;2023-05-10T01:17:43;3.93;;;0.97;;
12892;SDS011;6514;48.606;9.222;2023-05-10T01:20:11;0.83;;;0.70;;
12892;SDS011;6514;48.606;9.222;2023-05-10T01:22:47;2.03;;;0.90;;
12892;SDS011;6514;48.606;9.222;2023-05-10T01:28:58;1.53;;;0.63;;
12892;SDS011;6514;48.606;9.222;2023-05-10T01:32:10;2.77;;;0.90;;
12892;SDS011;6514;48.606;9.222;2023-05-10T01:34:49;0.70;;;0.40;;
12892;SDS011;6514;48.606;9.222;2023-05-10T01:37:21;1.27;;;0.43;;
12892;SDS011;6514;48.606;9.222;2023-05-10T01:39:57;0.70;;;0.57;;
12892;SDS011;6514;48.606;9.222;2023-05-10T01:42:29;0.60;;;0.60;;
12892;SDS011;6514;48.606;9.222;2023-05-10T01:45:06;0.60;;;0.60;;
12892;SDS011;6514;48.606;9.222;2023-05-10T01:47:42;0.93;;;0.50;;
12892;SDS011;6514;48.606;9.222;2023-05-10T01:50:12;2.53;;;0.50;;
12892;SDS011;6514;48.606;9.222;2023-05-10T01:52:44;0.50;;;0.40;;
12892;SDS011;6514;48.606;9.222;2023-05-10T01:55:14;1.17;;;0.40;;
12892;SDS011;6514;48.606;9.222;2023-05-10T01:57:43;0.40;;;0.40;;
12892;SDS011;6514;48.606;9.222;2023-05-10T02:00:11;0.30;;;0.30;;
12892;SDS011;6514;48.606;9.222;2023-05-10T02:02:40;0.40;;;0.40;;
12892;SDS011;6514;48.606;9.222;2023-05-10T02:05:12;0.40;;;0.40;;
12892;SDS011;6514;48.606;9.222;2023-05-10T02:07:40;0.80;;;0.40;;
12892;SDS011;6514;48.606;9.222;2023-05-10T02:10:08;3.00;;;0.40;;
12892;SDS011;6514;48.606;9.222;2023-05-10T02:12:37;0.37;;;0.37;;
12892;SDS011;6514;48.606;9.222;2023-05-10T02:15:07;1.73;;;0.50;;
12892;SDS011;6514;48.606;9.222;2023-05-10T02:17:37;0.57;;;0.40;;
12892;SDS011;6514;48.606;9.222;2023-05-10T02:20:07;0.47;;;0.47;;
12892;SDS011;6514;48.606;9.222;2023-05-10T02:22:35;0.57;;;0.50;;
12892;SDS011;6514;48.606;9.222;2023-05-10T02:25:03;0.93;;;0.50;;
12892;SDS011;6514;48.606;9.222;2023-05-10T02:27:31;0.50;;;0.50;;
12892;SDS011;6514;48.606;9.222;2023-05-10T02:29:58;0.40;;;0.40;;
12892;SDS011;6514;48.606;9.222;2023-05-10T02:32:26;1.13;;;0.70;;
12892;SDS011;6514;48.606;9.222;2023-05-10T02:34:54;2.10;;;0.50;;
12892;SDS011;6514;48.606;9.222;2023-05-10T02:37:23;3.73;;;0.63;;
12892;SDS011;6514;48.606;9.222;2023-05-10T02:39:52;0.40;;;0.40;;
12892;SDS011;6514;48.606;9.222;2023-05-10T02:42:22;0.40;;;0.40;;
12892;SDS011;6514;48.606;9.222;2023-05-10T02:44:52;1.03;;;0.50;;
12892;SDS011;6514;48.606;9.222;2023-05-10T02:47:22;1.20;;;0.60;;
12892;SDS011;6514;48.606;9.222;2023-05-10T02:49:49;2.23;;;0.67;;
12892;SDS011;6514;48.606;9.222;2023-05-10T02:52:18;0.67;;;0.67;;
12892;SDS011;6514;48.606;9.222;2023-05-10T02:54:52;1.83;;;1.00;;
12892;SDS011;6514;48.606;9.222;2023-05-10T02:57:22;1.90;;;0.70;;
12892;SDS011;6514;48.606;9.222;2023-05-10T02:59:53;0.40;;;0.40;;
12892;SDS011;6514;48.606;9.222;2023-05-10T03:02:20;0.70;;;0.60;;
12892;SDS011;6514;48.606;9.222;2023-05-10T03:04:47;0.73;;;0.73;;
12892;SDS011;6514;48.606;9.222;2023-05-10T03:07:14;0.40;;;0.40;;
12892;SDS011;6514;48.606;9.222;2023-05-10T03:09:41;1.60;;;0.50;;
12892;SDS011;6514;48.606;9.222;2023-05-10T03:12:11;0.73;;;0.60;;
12892;SDS011;6514;48.606;9.222;2023-05-10T03:14:48;0.80;;;0.70;;
12892;SDS011;6514;48.606;9.222;2023-05-10T03:17:23;0.50;;;0.50;;
12892;SDS011;6514;48.606;9.222;2023-05-10T03:19:56;0.87;;;0.53;;
12892;SDS011;6514;48.606;9.222;2023-05-10T03:22:25;2.47;;;0.70;;
12892;SDS011;6514;48.606;9.222;2023-05-10T03:24:56;0.63;;;0.60;;
12892;SDS011;6514;48.606;9.222;2023-05-10T03:27:27;1.10;;;0.60;;
12892;SDS011;6514;48.606;9.222;2023-05-10T03:29:56;0.83;;;0.57;;
12892;SDS011;6514;48.606;9.222;2023-05-10T03:32:23;1.80;;;0.77;;
12892;SDS011;6514;48.606;9.222;2023-05-10T03:34:52;2.93;;;0.87;;
12892;SDS011;6514;48.606;9.222;2023-05-10T03:37:18;2.70;;;0.60;;
12892;SDS011;6514;48.606;9.222;2023-05-10T03:39:45;0.60;;;0.60;;
12892;SDS011;6514;48.606;9.222;2023-05-10T03:42:12;1.07;;;0.80;;
12892;SDS011;6514;48.606;9.222;2023-05-10T03:44:40;2.90;;;0.80;;
12892;SDS011;6514;48.606;9.222;2023-05-10T03:47:07;1.40;;;0.80;;
12892;SDS011;6514;48.606;9.222;2023-05-10T03:49:34;1.17;;;0.73;;
12892;SDS011;6514;48.606;9.222;2023-05-10T03:52:01;0.97;;;0.70;;
12892;SDS011;6514;48.606;9.222;2023-05-10T03:54:28;0.60;;;0.60;;
12892;SDS011;6514;48.606;9.222;2023-05-10T03:56:55;2.50;;;0.83;;
12892;SDS011;6514;48.606;9.222;2023-05-10T03:59:22;1.90;;;1.00;;
12892;SDS011;6514;48.606;9.222;2023-05-10T04:01:50;1.70;;;1.00;;
12892;SDS011;6514;48.606;9.222;2023-05-10T04:04:17;1.00;;;0.90;;
12892;SDS011;6514;48.606;9.222;2023-05-10T04:06:45;0.90;;;0.90;;
12892;SDS011;6514;48.606;9.222;2023-05-10T04:09:12;1.17;;;1.03;;
12892;SDS011;6514;48.606;9.222;2023-05-10T04:11:41;0.93;;;0.83;;
12892;SDS011;6514;48.606;9.222;2023-05-10T04:14:08;2.73;;;1.00;;
12892;SDS011;6514;48.606;9.222;2023-05-10T04:16:35;0.90;;;0.90;;
12892;SDS011;6514;48.606;9.222;2023-05-10T04:19:03;1.03;;;0.93;;
12892;SDS011;6514;48.606;9.222;2023-05-10T04:21:30;2.23;;;1.00;;
12892;SDS011;6514;48.606;9.222;2023-05-10T04:23:56;1.70;;;1.10;;
12892;SDS011;6514;48.606;9.222;2023-05-10T04:26:23;2.13;;;1.23;;
12892;SDS011;6514;48.606;9.222;2023-05-10T04:28:50;3.13;;;0.97;;
12892;SDS011;6514;48.606;9.222;2023-05-10T04:31:17;2.57;;;1.00;;
12892;SDS011;6514;48.606;9.222;2023-05-10T04:33:44;1.00;;;1.00;;
12892;SDS011;6514;48.606;9.222;2023-05-10T04:36:12;2.60;;;0.90;;
12892;SDS011;6514;48.606;9.222;2023-05-10T04:38:39;1.30;;;1.20;;
12892;SDS011;6514;48.606;9.222;2023-05-10T04:41:06;1.57;;;1.20;;
12892;SDS011;6514;48.606;9.222;2023-05-10T04:43:34;0.67;;;0.63;;
12892;SDS011;6514;48.606;9.222;2023-05-10T04:46:02;2.27;;;1.00;;
12892;SDS011;6514;48.606;9.222;2023-05-10T04:48:29;1.00;;;0.90;;
12892;SDS011;6514;48.606;9.222;2023-05-10T04:50:56;2.60;;;1.03;;
12892;SDS011;6514;48.606;9.222;2023-05-10T04:53:24;2.13;;;1.10;;
12892;SDS011;6514;48.606;9.222;2023-05-10T04:55:51;1.87;;;1.10;;
12892;SDS011;6514;48.606;9.222;2023-05-10T04:58:18;1.50;;;0.90;;
12892;SDS011;6514;48.606;9.222;2023-05-10T05:00:45;2.33;;;1.20;;
12892;SDS011;6514;48.606;9.222;2023-05-10T05:03:12;1.90;;;1.10;;
12892;SDS011;6514;48.606;9.222;2023-05-10T05:05:39;1.40;;;1.20;;
12892;SDS011;6514;48.606;9.222;2023-05-10T05:08:05;1.40;;;1.10;;
12892;SDS011;6514;48.606;9.222;2023-05-10T05:10:34;1.23;;;0.90;;
12892;SDS011;6514;48.606;9.222;2023-05-10T05:13:00;1.63;;;1.53;;
12892;SDS011;6514;48.606;9.222;2023-05-10T05:15:27;1.27;;;1.10;;
12892;SDS011;6514;48.606;9.222;2023-05-10T05:17:55;3.40;;;1.30;;
12892;SDS011;6514;48.606;9.222;2023-05-10T05:20:22;2.87;;;2.23;;
12892;SDS011;6514;48.606;9.222;2023-05-10T05:22:49;1.80;;;1.27;;
12892;SDS011;6514;48.606;9.222;2023-05-10T05:25:16;1.60;;;1.50;;
12892;SDS011;6514;48.606;9.222;2023-05-10T05:27:44;2.77;;;1.43;;
12892;SDS011;6514;48.606;9.222;2023-05-10T05:30:11;1.40;;;1.30;;
12892;SDS011;6514;48.606;9.222;2023-05-10T05:32:38;1.00;;;1.00;;
12892;SDS011;6514;48.606;9.222;2023-05-10T05:35:05;3.07;;;1.20;;
12892;SDS011;6514;48.606;9.222;2023-05-10T05:37:32;3.13;;;0.93;;
12892;SDS011;6514;48.606;9.222;2023-05-10T05:40:00;3.60;;;1.20;;
12892;SDS011;6514;48.606;9.222;2023-05-10T05:42:28;1.30;;;1.07;;
12892;SDS011;6514;48.606;9.222;2023-05-10T05:44:56;1.77;;;1.10;;
12892;SDS011;6514;48.606;9.222;2023-05-10T05:47:23;1.93;;;1.10;;
12892;SDS011;6514;48.606;9.222;2023-05-10T05:49:50;1.80;;;1.17;;
12892;SDS011;6514;48.606;9.222;2023-05-10T05:52:16;1.97;;;1.17;;
12892;SDS011;6514;48.606;9.222;2023-05-10T05:54:43;2.50;;;1.47;;
12892;SDS011;6514;48.606;9.222;2023-05-10T05:57:10;2.50;;;1.30;;
12892;SDS011;6514;48.606;9.222;2023-05-10T05:59:37;1.70;;;1.40;;
12892;SDS011;6514;48.606;9.222;2023-05-10T06:02:08;1.90;;;1.27;;
12892;SDS011;6514;48.606;9.222;2023-05-10T06:04:35;1.30;;;1.20;;
12892;SDS011;6514;48.606;9.222;2023-05-10T06:07:02;1.40;;;1.30;;
12892;SDS011;6514;48.606;9.222;2023-05-10T06:09:29;1.20;;;1.10;;
12892;SDS011;6514;48.606;9.222;2023-05-10T06:11:55;1.33;;;1.23;;
12892;SDS011;6514;48.606;9.222;2023-05-10T06:14:22;2.90;;;1.37;;
12892;SDS011;6514;48.606;9.222;2023-05-10T06:16:49;1.17;;;1.07;;
12892;SDS011;6514;48.606;9.222;2023-05-10T06:19:18;1.57;;;1.33;;
12892;SDS011;6514;48.606;9.222;2023-05-10T06:21:45;3.37;;;1.20;;
12892;SDS011;6514;48.606;9.222;2023-05-10T06:24:11;2.37;;;1.10;;
12892;SDS011;6514;48.606;9.222;2023-05-10T06:26:38;1.03;;;1.00;;
12892;SDS011;6514;48.606;9.222;2023-05-10T06:29:05;1.30;;;1.20;;
12892;SDS011;6514;48.606;9.222;2023-05-10T06:31:32;1.53;;;1.37;;
12892;SDS011;6514;48.606;9.222;2023-05-10T06:33:59;1.77;;;1.30;;
12892;SDS011;6514;48.606;9.222;2023-05-10T06:36:27;1.93;;;1.20;;
12892;SDS011;6514;48.606;9.222;2023-05-10T06:38:54;1.57;;;1.23;;
12892;SDS011;6514;48.606;9.222;2023-05-10T06:41:21;1.43;;;1.20;;
12892;SDS011;6514;48.606;9.222;2023-05-10T06:43:47;1.50;;;1.37;;
12892;SDS011;6514;48.606;9.222;2023-05-10T06:46:14;3.00;;;1.30;;
12892;SDS011;6514;48.606;9.222;2023-05-10T06:48:41;1.73;;;1.00;;
12892;SDS011;6514;48.606;9.222;2023-05-10T06:51:08;1.10;;;1.10;;
12892;SDS011;6514;48.606;9.222;2023-05-10T06:53:36;1.10;;;0.90;;
12892;SDS011;6514;48.606;9.222;2023-05-10T06:56:03;2.43;;;1.20;;
12892;SDS011;6514;48.606;9.222;2023-05-10T06:58:30;1.17;;;1.00;;
12892;SDS011;6514;48.606;9.222;2023-05-10T07:01:01;1.30;;;1.20;;
12892;SDS011;6514;48.606;9.222;2023-05-10T07:03:29;2.30;;;1.37;;
12892;SDS011;6514;48.606;9.222;2023-05-10T07:05:59;2.80;;;1.13;;
12892;SDS011;6514;48.606;9.222;2023-05-10T07:08:28;1.30;;;1.20;;
12892;SDS011;6514;48.606;9.222;2023-05-10T07:11:00;2.53;;;1.60;;
12892;SDS011;6514;48.606;9.222;2023-05-10T07:13:28;1.10;;;1.00;;
12892;SDS011;6514;48.606;9.222;2023-05-10T07:15:56;2.07;;;1.40;;
12892;SDS011;6514;48.606;9.222;2023-05-10T07:18:23;1.77;;;1.10;;
12892;SDS011;6514;48.606;9.222;2023-05-10T07:20:50;1.20;;;1.00;;
12892;SDS011;6514;48.606;9.222;2023-05-10T07:23:17;1.20;;;1.10;;
12892;SDS011;6514;48.606;9.222;2023-05-10T07:25:44;1.20;;;0.90;;
12892;SDS011;6514;48.606;9.222;2023-05-10T07:28:13;0.73;;;0.73;;
12892;SDS011;6514;48.606;9.222;2023-05-10T07:30:41;1.90;;;0.90;;
12892;SDS011;6514;48.606;9.222;2023-05-10T07:33:08;2.80;;;0.90;;
12892;SDS011;6514;48.606;9.222;2023-05-10T07:35:36;2.13;;;0.80;;
12892;SDS011;6514;48.606;9.222;2023-05-10T07:38:03;1.10;;;0.90;;
12892;SDS011;6514;48.606;9.222;2023-05-10T07:40:30;2.60;;;0.70;;
12892;SDS011;6514;48.606;9.222;2023-05-10T07:42:57;1.00;;;0.83;;
12892;SDS011;6514;48.606;9.222;2023-05-10T07:45:26;1.97;;;0.70;;
12892;SDS011;6514;48.606;9.222;2023-05-10T07:47:53;0.70;;;0.70;;
12892;SDS011;6514;48.606;9.222;2023-05-10T07:50:20;1.13;;;0.83;;
12892;SDS011;6514;48.606;9.222;2023-05-10T07:52:47;2.80;;;0.80;;
12892;SDS011;6514;48.606;9.222;2023-05-10T07:55:14;2.57;;;0.90;;
12892;SDS011;6514;48.606;9.222;2023-05-10T07:57:41;1.70;;;0.70;;
12892;SDS011;6514;48.606;9.222;2023-05-10T08:00:08;3.13;;;0.90;;
12892;SDS011;6514;48.606;9.222;2023-05-10T08:02:40;1.13;;;1.03;;
12892;SDS011;6514;48.606;9.222;2023-05-10T08:05:07;1.13;;;0.60;;
12892;SDS011;6514;48.606;9.222;2023-05-10T08:07:34;3.43;;;0.73;;
12892;SDS011;6514;48.606;9.222;2023-05-10T08:10:01;1.37;;;0.73;;
12892;SDS011;6514;48.606;9.222;2023-05-10T08:12:28;1.80;;;0.90;;
12892;SDS011;6514;48.606;9.222;2023-05-10T08:14:55;0.83;;;0.70;;
12892;SDS011;6514;48.606;9.222;2023-05-10T08:17:22;0.93;;;0.60;;
12892;SDS011;6514;48.606;9.222;2023-05-10T08:19:50;2.10;;;0.80;;
12892;SDS011;6514;48.606;9.222;2023-05-10T08:22:17;0.97;;;0.73;;
12892;SDS011;6514;48.606;9.222;2023-05-10T08:24:44;1.07;;;0.70;;
12892;SDS011;6514;48.606;9.222;2023-05-10T08:27:11;2.00;;;0.80;;
12892;SDS011;6514;48.606;9.222;2023-05-10T08:29:37;1.77;;;0.53;;
12892;SDS011;6514;48.606;9.222;2023-05-10T08:32:04;2.67;;;0.60;;
12892;SDS011;6514;48.606;9.222;2023-05-10T08:34:31;1.13;;;0.70;;
12892;SDS011;6514;48.606;9.222;2023-05-10T08:36:59;0.53;;;0.47;;
12892;SDS011;6514;48.606;9.222;2023-05-10T08:39:26;0.77;;;0.60;;
12892;SDS011;6514;48.606;9.222;2023-05-10T08:41:53;0.73;;;0.73;;
12892;SDS011;6514;48.606;9.222;2023-05-10T08:44:24;1.17;;;1.07;;
12892;SDS011;6514;48.606;9.222;2023-05-10T08:46:51;0.80;;;0.70;;
12892;SDS011;6514;48.606;9.222;2023-05-10T08:49:20;0.60;;;0.60;;
12892;SDS011;6514;48.606;9.222;2023-05-10T08:51:50;0.97;;;0.70;;
12892;SDS011;6514;48.606;9.222;2023-05-10T08:54:22;0.80;;;0.80;;
12892;SDS011;6514;48.606;9.222;2023-05-10T08:56:50;0.93;;;0.57;;
12892;SDS011;6514;48.606;9.222;2023-05-10T08:59:16;2.87;;;0.60;;
12892;SDS011;6514;48.606;9.222;2023-05-10T09:01:44;1.30;;;0.50;;
12892;SDS011;6514;48.606;9.222;2023-05-10T09:04:13;0.93;;;0.40;;
12892;SDS011;6514;48.606;9.222;2023-05-10T09:06:40;0.87;;;0.60;;
12892;SDS011;6514;48.606;9.222;2023-05-10T09:09:07;2.00;;;0.70;;
12892;SDS011;6514;48.606;9.222;2023-05-10T09:11:35;0.47;;;0.43;;
12892;SDS011;6514;48.606;9.222;2023-05-10T09:14:03;1.57;;;0.40;;
12892;SDS011;6514;48.606;9.222;2023-05-10T09:16:30;0.30;;;0.30;;
12892;SDS011;6514;48.606;9.222;2023-05-10T09:18:57;0.60;;;0.60;;
12892;SDS011;6514;48.606;9.222;2023-05-10T09:21:24;1.23;;;0.50;;
12892;SDS011;6514;48.606;9.222;2023-05-10T09:23:52;0.60;;;0.60;;
12892;SDS011;6514;48.606;9.222;2023-05-10T09:26:21;0.60;;;0.50;;
12892;SDS011;6514;48.606;9.222;2023-05-10T09:28:54;0.77;;;0.43;;
12892;SDS011;6514;48.606;9.222;2023-05-10T09:31:22;0.50;;;0.47;;
12892;SDS011;6514;48.606;9.222;2023-05-10T09:33:50;0.77;;;0.47;;
12892;SDS011;6514;48.606;9.222;2023-05-10T09:36:18;0.97;;;0.50;;
12892;SDS011;6514;48.606;9.222;2023-05-10T09:38:45;0.50;;;0.50;;
12892;SDS011;6514;48.606;9.222;2023-05-10T09:41:17;0.53;;;0.50;;
12892;SDS011;6514;48.606;9.222;2023-05-10T09:43:45;0.40;;;0.40;;
12892;SDS011;6514;48.606;9.222;2023-05-10T09:46:13;2.70;;;0.50;;
12892;SDS011;6514;48.606;9.222;2023-05-10T09:48:41;0.37;;;0.37;;
12892;SDS011;6514;48.606;9.222;2023-05-10T09:51:10;0.23;;;0.23;;
12892;SDS011;6514;48.606;9.222;2023-05-10T09:53:37;0.60;;;0.50;;
12892;SDS011;6514;48.606;9.222;2023-05-10T09:56:04;1.93;;;0.50;;
12892;SDS011;6514;48.606;9.222;2023-05-10T09:58:30;0.40;;;0.40;;
12892;SDS011;6514;48.606;9.222;2023-05-10T10:01:03;0.43;;;0.43;;
12892;SDS011;6514;48.606;9.222;2023-05-10T10:03:31;0.50;;;0.50;;
12892;SDS011;6514;48.606;9.222;2023-05-10T10:05:58;2.03;;;0.50;;
12892;SDS011;6514;48.606;9.222;2023-05-10T10:08:25;0.70;;;0.70;;
12892;SDS011;6514;48.606;9.222;2023-05-10T10:10:52;1.60;;;0.50;;
12892;SDS011;6514;48.606;9.222;2023-05-10T10:13:19;1.13;;;0.63;;
12892;SDS011;6514;48.606;9.222;2023-05-10T10:15:46;0.93;;;0.50;;
12892;SDS011;6514;48.606;9.222;2023-05-10T10:18:16;1.50;;;0.50;;
12892;SDS011;6514;48.606;9.222;2023-05-10T10:20:45;2.17;;;0.43;;
12892;SDS011;6514;48.606;9.222;2023-05-10T10:23:12;0.73;;;0.40;;
12892;SDS011;6514;48.606;9.222;2023-05-10T10:25:39;0.50;;;0.50;;
12892;SDS011;6514;48.606;9.222;2023-05-10T10:28:09;1.17;;;0.30;;
12892;SDS011;6514;48.606;9.222;2023-05-10T10:30:47;0.80;;;0.40;;
12892;SDS011;6514;48.606;9.222;2023-05-10T10:33:28;1.50;;;0.47;;
12892;SDS011;6514;48.606;9.222;2023-05-10T10:36:06;1.90;;;0.40;;
12892;SDS011;6514;48.606;9.222;2023-05-10T10:38:37;0.47;;;0.47;;
12892;SDS011;6514;48.606;9.222;2023-05-10T10:41:27;0.60;;;0.50;;
12892;SDS011;6514;48.606;9.222;2023-05-10T10:46:59;0.50;;;0.40;;
12892;SDS011;6514;48.606;9.222;2023-05-10T10:49:27;0.93;;;0.47;;
12892;SDS011;6514;48.606;9.222;2023-05-10T10:52:20;1.47;;;0.50;;
12892;SDS011;6514;48.606;9.222;2023-05-10T10:54:52;0.60;;;0.60;;
12892;SDS011;6514;48.606;9.222;2023-05-10T10:57:20;0.50;;;0.50;;
12892;SDS011;6514;48.606;9.222;2023-05-10T10:59:47;0.67;;;0.67;;
12892;SDS011;6514;48.606;9.222;2023-05-10T11:02:33;1.93;;;0.50;;
12892;SDS011;6514;48.606;9.222;2023-05-10T11:08:07;0.60;;;0.60;;
12892;SDS011;6514;48.606;9.222;2023-05-10T11:10:35;1.57;;;0.80;;
12892;SDS011;6514;48.606;9.222;2023-05-10T11:13:03;2.27;;;0.70;;
12892;SDS011;6514;48.606;9.222;2023-05-10T11:15:31;0.73;;;0.40;;
12892;SDS011;6514;48.606;9.222;2023-05-10T11:17:58;3.30;;;0.77;;
12892;SDS011;6514;48.606;9.222;2023-05-10T11:20:27;2.43;;;0.50;;
12892;SDS011;6514;48.606;9.222;2023-05-10T11:22:59;3.80;;;0.70;;
12892;SDS011;6514;48.606;9.222;2023-05-10T11:25:41;1.20;;;0.70;;
12892;SDS011;6514;48.606;9.222;2023-05-10T11:28:10;1.30;;;0.70;;
12892;SDS011;6514;48.606;9.222;2023-05-10T11:30:38;3.00;;;0.67;;
12892;SDS011;6514;48.606;9.222;2023-05-10T11:33:05;3.03;;;0.90;;
12892;SDS011;6514;48.606;9.222;2023-05-10T11:35:36;2.37;;;0.87;;
12892;SDS011;6514;48.606;9.222;2023-05-10T11:38:05;0.90;;;0.70;;
12892;SDS011;6514;48.606;9.222;2023-05-10T11:40:34;0.93;;;0.60;;
12892;SDS011;6514;48.606;9.222;2023-05-10T11:43:01;1.67;;;0.83;;
12892;SDS011;6514;48.606;9.222;2023-05-10T11:45:29;2.07;;;0.80;;
12892;SDS011;6514;48.606;9.222;2023-05-10T11:47:58;3.80;;;0.73;;
12892;SDS011;6514;48.606;9.222;2023-05-10T11:50:25;1.23;;;0.60;;
12892;SDS011;6514;48.606;9.222;2023-05-10T11:52:53;0.50;;;0.50;;
12892;SDS011;6514;48.606;9.222;2023-05-10T11:55:20;1.00;;;0.60;;
12892;SDS011;6514;48.606;9.222;2023-05-10T11:57:49;1.33;;;0.80;;
12892;SDS011;6514;48.606;9.222;2023-05-10T12:00:18;1.50;;;0.77;;
12892;SDS011;6514;48.606;9.222;2023-05-10T12:02:45;2.30;;;0.80;;
12892;SDS011;6514;48.606;9.222;2023-05-10T12:05:12;1.50;;;0.80;;
12892;SDS011;6514;48.606;9.222;2023-05-10T12:07:40;0.93;;;0.80;;
12892;SDS011;6514;48.606;9.222;2023-05-10T12:10:07;1.00;;;0.70;;
12892;SDS011;6514;48.606;9.222;2023-05-10T12:12:37;1.50;;;0.90;;
12892;SDS011;6514;48.606;9.222;2023-05-10T12:15:08;2.30;;;0.60;;
12892;SDS011;6514;48.606;9.222;2023-05-10T12:17:37;1.17;;;0.50;;
12892;SDS011;6514;48.606;9.222;2023-05-10T12:20:15;0.60;;;0.50;;
12892;SDS011;6514;48.606;9.222;2023-05-10T12:22:46;2.43;;;0.90;;
12892;SDS011;6514;48.606;9.222;2023-05-10T12:25:15;1.40;;;0.63;;
12892;SDS011;6514;48.606;9.222;2023-05-10T12:27:47;1.23;;;0.87;;
12892;SDS011;6514;48.606;9.222;2023-05-10T12:30:22;1.00;;;0.67;;
12892;SDS011;6514;48.606;9.222;2023-05-10T12:32:50;1.67;;;0.60;;
12892;SDS011;6514;48.606;9.222;2023-05-10T12:35:17;0.90;;;0.50;;
12892;SDS011;6514;48.606;9.222;2023-05-10T12:37:46;2.57;;;0.90;;
12892;SDS011;6514;48.606;9.222;2023-05-10T12:40:13;2.93;;;0.80;;
12892;SDS011;6514;48.606;9.222;2023-05-10T12:42:40;1.17;;;0.70;;
12892;SDS011;6514;48.606;9.222;2023-05-10T12:45:10;1.97;;;0.80;;
12892;SDS011;6514;48.606;9.222;2023-05-10T12:47:38;1.30;;;0.70;;
12892;SDS011;6514;48.606;9.222;2023-05-10T12:50:06;1.40;;;0.63;;
12892;SDS011;6514;48.606;9.222;2023-05-10T12:52:33;1.37;;;0.50;;
12892;SDS011;6514;48.606;9.222;2023-05-10T12:55:00;3.13;;;0.70;;
12892;SDS011;6514;48.606;9.222;2023-05-10T12:57:28;1.30;;;0.80;;
12892;SDS011;6514;48.606;9.222;2023-05-10T12:59:55;1.60;;;0.70;;
12892;SDS011;6514;48.606;9.222;2023-05-10T13:02:23;2.73;;;0.60;;
12892;SDS011;6514;48.606;9.222;2023-05-10T13:04:52;1.20;;;0.73;;
12892;SDS011;6514;48.606;9.222;2023-05-10T13:07:19;1.87;;;0.60;;
12892;SDS011;6514;48.606;9.222;2023-05-10T13:09:45;2.63;;;0.80;;
12892;SDS011;6514;48.606;9.222;2023-05-10T13:12:15;3.37;;;0.80;;
12892;SDS011;6514;48.606;9.222;2023-05-10T13:14:42;1.77;;;0.80;;
12892;SDS011;6514;48.606;9.222;2023-05-10T13:17:09;2.03;;;0.60;;
12892;SDS011;6514;48.606;9.222;2023-05-10T13:19:36;1.77;;;0.63;;
12892;SDS011;6514;48.606;9.222;2023-05-10T13:22:04;1.43;;;0.77;;
12892;SDS011;6514;48.606;9.222;2023-05-10T13:24:31;4.53;;;0.70;;
12892;SDS011;6514;48.606;9.222;2023-05-10T13:26:58;0.43;;;0.43;;
12892;SDS011;6514;48.606;9.222;2023-05-10T13:29:25;1.83;;;0.73;;
12892;SDS011;6514;48.606;9.222;2023-05-10T13:31:52;0.70;;;0.53;;
12892;SDS011;6514;48.606;9.222;2023-05-10T13:34:19;1.10;;;0.60;;
12892;SDS011;6514;48.606;9.222;2023-05-10T13:36:46;0.50;;;0.50;;
12892;SDS011;6514;48.606;9.222;2023-05-10T13:39:15;3.87;;;0.70;;
12892;SDS011;6514;48.606;9.222;2023-05-10T13:41:42;1.37;;;0.60;;
12892;SDS011;6514;48.606;9.222;2023-05-10T13:44:11;1.87;;;0.70;;
12892;SDS011;6514;48.606;9.222;2023-05-10T13:46:38;1.27;;;0.53;;
12892;SDS011;6514;48.606;9.222;2023-05-10T13:49:05;1.20;;;0.67;;
12892;SDS011;6514;48.606;9.222;2023-05-10T13:51:33;1.27;;;0.60;;
12892;SDS011;6514;48.606;9.222;2023-05-10T13:54:00;2.47;;;0.60;;
12892;SDS011;6514;48.606;9.222;2023-05-10T13:56:29;3.90;;;0.90;;
12892;SDS011;6514;48.606;9.222;2023-05-10T13:58:56;1.73;;;0.67;;
12892;SDS011;6514;48.606;9.222;2023-05-10T14:01:23;4.73;;;0.50;;
12892;SDS011;6514;48.606;9.222;2023-05-10T14:03:50;1.50;;;0.60;;
12892;SDS011;6514;48.606;9.222;2023-05-10T14:06:17;1.60;;;0.60;;
12892;SDS011;6514;48.606;9.222;2023-05-10T14:08:43;1.40;;;0.60;;
12892;SDS011;6514;48.606;9.222;2023-05-10T14:11:10;1.73;;;0.60;;
12892;SDS011;6514;48.606;9.222;2023-05-10T14:13:39;0.63;;;0.60;;
12892;SDS011;6514;48.606;9.222;2023-05-10T14:16:06;1.07;;;0.73;;
12892;SDS011;6514;48.606;9.222;2023-05-10T14:18:33;3.87;;;0.90;;
12892;SDS011;6514;48.606;9.222;2023-05-10T14:21:01;0.57;;;0.57;;
12892;SDS011;6514;48.606;9.222;2023-05-10T14:23:28;1.80;;;0.67;;
12892;SDS011;6514;48.606;9.222;2023-05-10T14:25:55;1.93;;;0.60;;
12892;SDS011;6514;48.606;9.222;2023-05-10T14:28:22;0.97;;;0.70;;
12892;SDS011;6514;48.606;9.222;2023-05-10T14:30:51;3.33;;;0.70;;
12892;SDS011;6514;48.606;9.222;2023-05-10T14:33:18;2.30;;;0.70;;
12892;SDS011;6514;48.606;9.222;2023-05-10T14:35:45;1.80;;;0.80;;
12892;SDS011;6514;48.606;9.222;2023-05-10T14:38:13;1.90;;;0.70;;
12892;SDS011;6514;48.606;9.222;2023-05-10T14:40:40;0.77;;;0.50;;
12892;SDS011;6514;48.606;9.222;2023-05-10T14:43:07;0.73;;;0.63;;
12892;SDS011;6514;48.606;9.222;2023-05-10T14:45:34;2.13;;;0.60;;
12892;SDS011;6514;48.606;9.222;2023-05-10T14:48:02;1.67;;;0.60;;
12892;SDS011;6514;48.606;9.222;2023-05-10T14:50:29;1.57;;;0.70;;
12892;SDS011;6514;48.606;9.222;2023-05-10T14:52:56;1.80;;;0.80;;
12892;SDS011;6514;48.606;9.222;2023-05-10T14:55:24;2.97;;;0.73;;
12892;SDS011;6514;48.606;9.222;2023-05-10T14:57:50;1.07;;;0.80;;
12892;SDS011;6514;48.606;9.222;2023-05-10T15:00:18;1.67;;;0.70;;
12892;SDS011;6514;48.606;9.222;2023-05-10T15:02:45;0.57;;;0.57;;
12892;SDS011;6514;48.606;9.222;2023-05-10T15:05:13;1.00;;;0.73;;
12892;SDS011;6514;48.606;9.222;2023-05-10T15:07:40;4.27;;;0.70;;
12892;SDS011;6514;48.606;9.222;2023-05-10T15:10:08;1.27;;;0.90;;
12892;SDS011;6514;48.606;9.222;2023-05-10T15:12:36;1.10;;;0.60;;
12892;SDS011;6514;48.606;9.222;2023-05-10T15:15:03;5.60;;;1.00;;
12892;SDS011;6514;48.606;9.222;2023-05-10T15:17:30;1.40;;;0.77;;